sensor_id;sensor_type;location;lat;lon;timestamp;P1;durP1;ratioP1;P2;durP2;ratioP2
39104;SDS011;46464;51.154;13.812;2023-05-10T00:00:00;4.40;;;2.17;;
39104;SDS011;46464;51.154;13.812;2023-05-10T00:02:26;4.85;;;2.13;;
39104;SDS011;46464;51.154;13.812;2023-05-10T00:04:53;6.20;;;2.22;;
39104;SDS011;46464;51.154;13.812;2023-05-10T00:07:19;3.28;;;1.85;;
39104;SDS011;46464;51.154;13.812;2023-05-10T00:09:45;5.30;;;1.88;;
39104;SDS011;46464;51.154;13.812;2023-05-10T00:12:12;5.50;;;2.42;;
39104;SDS011;46464;51.154;13.812;2023-05-10T00:14:38;3.35;;;1.70;;
39104;SDS011;46464;51.154;13.812;2023-05-10T00:17:05;3.55;;;2.05;;
39104;SDS011;46464;51.154;13.812;2023-05-10T00:19:31;5.50;;;2.20;;
39104;SDS011;46464;51.154;13.812;2023-05-10T00:21:58;4.78;;;2.00;;
39104;SDS011;46464;51.154;13.812;2023-05-10T00:24:25;2.95;;;1.60;;
39104;SDS011;46464;51.154;13.812;2023-05-10T00:26:51;5.43;;;2.20;;
39104;SDS011;46464;51.154;13.812;2023-05-10T00:29:18;3.20;;;1.88;;
39104;SDS011;46464;51.154;13.812;2023-05-10T00:31:45;4.20;;;2.10;;
39104;SDS011;46464;51.154;13.812;2023-05-10T00:34:12;4.00;;;2.05;;
39104;SDS011;46464;51.154;13.812;2023-05-10T00:36:38;4.47;;;2.20;;
39104;SDS011;46464;51.154;13.812;2023-05-10T00:39:05;4.68;;;2.08;;
39104;SDS011;46464;51.154;13.812;2023-05-10T00:53:45;3.13;;;1.77;;
39104;SDS011;46464;51.154;13.812;2023-05-10T00:56:12;5.65;;;2.00;;
39104;SDS011;46464;51.154;13.812;2023-05-10T00:58:39;3.67;;;1.98;;
39104;SDS011;46464;51.154;13.812;2023-05-10T01:03:33;9.48;;;1.98;;
39104;SDS011;46464;51.154;13.812;2023-05-10T01:05:59;3.13;;;1.77;;
39104;SDS011;46464;51.154;13.812;2023-05-10T01:08:26;2.63;;;1.95;;
39104;SDS011;46464;51.154;13.812;2023-05-10T01:10:53;2.88;;;2.03;;
39104;SDS011;46464;51.154;13.812;2023-05-10T01:13:33;7.00;;;1.90;;
39104;SDS011;46464;51.154;13.812;2023-05-10T01:16:03;3.50;;;2.00;;
39104;SDS011;46464;51.154;13.812;2023-05-10T01:18:31;4.53;;;2.33;;
39104;SDS011;46464;51.154;13.812;2023-05-10T01:21:11;3.00;;;1.85;;
39104;SDS011;46464;51.154;13.812;2023-05-10T01:26:47;3.38;;;2.00;;
39104;SDS011;46464;51.154;13.812;2023-05-10T01:34:54;3.10;;;1.85;;
39104;SDS011;46464;51.154;13.812;2023-05-10T01:37:41;4.90;;;1.83;;
39104;SDS011;46464;51.154;13.812;2023-05-10T01:40:26;6.43;;;2.10;;
39104;SDS011;46464;51.154;13.812;2023-05-10T01:43:02;5.10;;;2.10;;
39104;SDS011;46464;51.154;13.812;2023-05-10T01:45:39;3.83;;;1.90;;
39104;SDS011;46464;51.154;13.812;2023-05-10T01:48:11;3.17;;;1.63;;
39104;SDS011;46464;51.154;13.812;2023-05-10T01:50:42;3.58;;;1.73;;
39104;SDS011;46464;51.154;13.812;2023-05-10T01:53:10;4.22;;;2.05;;
39104;SDS011;46464;51.154;13.812;2023-05-10T01:55:39;2.63;;;1.60;;
39104;SDS011;46464;51.154;13.812;2023-05-10T01:58:13;2.47;;;1.73;;
39104;SDS011;46464;51.154;13.812;2023-05-10T02:00:45;3.00;;;1.92;;
39104;SDS011;46464;51.154;13.812;2023-05-10T02:03:13;3.22;;;1.80;;
39104;SDS011;46464;51.154;13.812;2023-05-10T02:05:42;3.75;;;1.70;;
39104;SDS011;46464;51.154;13.812;2023-05-10T02:08:11;3.28;;;2.10;;
39104;SDS011;46464;51.154;13.812;2023-05-10T02:10:39;5.13;;;1.90;;
39104;SDS011;46464;51.154;13.812;2023-05-10T02:13:08;3.00;;;1.75;;
39104;SDS011;46464;51.154;13.812;2023-05-10T02:15:36;2.95;;;1.90;;
39104;SDS011;46464;51.154;13.812;2023-05-10T02:18:04;2.92;;;1.80;;
39104;SDS011;46464;51.154;13.812;2023-05-10T02:20:32;3.90;;;2.40;;
39104;SDS011;46464;51.154;13.812;2023-05-10T02:23:00;6.70;;;2.70;;
39104;SDS011;46464;51.154;13.812;2023-05-10T02:25:29;3.35;;;2.17;;
39104;SDS011;46464;51.154;13.812;2023-05-10T02:27:57;3.88;;;1.88;;
39104;SDS011;46464;51.154;13.812;2023-05-10T02:30:27;2.63;;;1.85;;
39104;SDS011;46464;51.154;13.812;2023-05-10T02:32:56;9.23;;;3.00;;
39104;SDS011;46464;51.154;13.812;2023-05-10T02:35:25;2.58;;;1.88;;
39104;SDS011;46464;51.154;13.812;2023-05-10T02:37:52;4.45;;;2.28;;
39104;SDS011;46464;51.154;13.812;2023-05-10T02:40:20;4.22;;;2.35;;
39104;SDS011;46464;51.154;13.812;2023-05-10T02:42:48;2.70;;;1.98;;
39104;SDS011;46464;51.154;13.812;2023-05-10T02:45:19;2.72;;;1.92;;
39104;SDS011;46464;51.154;13.812;2023-05-10T02:47:48;3.20;;;2.05;;
39104;SDS011;46464;51.154;13.812;2023-05-10T02:50:14;4.93;;;2.00;;
39104;SDS011;46464;51.154;13.812;2023-05-10T02:52:49;4.15;;;1.92;;
39104;SDS011;46464;51.154;13.812;2023-05-10T02:55:21;3.03;;;1.85;;
39104;SDS011;46464;51.154;13.812;2023-05-10T02:57:52;3.03;;;2.00;;
39104;SDS011;46464;51.154;13.812;2023-05-10T03:00:24;3.75;;;2.08;;
39104;SDS011;46464;51.154;13.812;2023-05-10T03:02:51;2.72;;;1.90;;
39104;SDS011;46464;51.154;13.812;2023-05-10T03:05:17;2.78;;;1.85;;
39104;SDS011;46464;51.154;13.812;2023-05-10T03:07:45;3.13;;;1.95;;
39104;SDS011;46464;51.154;13.812;2023-05-10T03:10:12;5.10;;;1.85;;
39104;SDS011;46464;51.154;13.812;2023-05-10T03:16:08;3.28;;;1.98;;
39104;SDS011;46464;51.154;13.812;2023-05-10T03:21:14;3.47;;;1.60;;
39104;SDS011;46464;51.154;13.812;2023-05-10T03:23:46;2.90;;;1.95;;
39104;SDS011;46464;51.154;13.812;2023-05-10T03:26:17;4.35;;;1.98;;
39104;SDS011;46464;51.154;13.812;2023-05-10T03:28:49;3.60;;;1.80;;
39104;SDS011;46464;51.154;13.812;2023-05-10T03:31:18;3.88;;;1.90;;
39104;SDS011;46464;51.154;13.812;2023-05-10T03:33:48;2.95;;;1.90;;
39104;SDS011;46464;51.154;13.812;2023-05-10T03:36:16;3.13;;;1.73;;
39104;SDS011;46464;51.154;13.812;2023-05-10T03:41:09;2.60;;;1.80;;
39104;SDS011;46464;51.154;13.812;2023-05-10T03:43:35;4.20;;;1.98;;
39104;SDS011;46464;51.154;13.812;2023-05-10T03:46:03;6.10;;;2.17;;
39104;SDS011;46464;51.154;13.812;2023-05-10T03:48:33;4.78;;;1.77;;
39104;SDS011;46464;51.154;13.812;2023-05-10T03:51:00;5.30;;;2.42;;
39104;SDS011;46464;51.154;13.812;2023-05-10T03:53:26;3.42;;;1.83;;
39104;SDS011;46464;51.154;13.812;2023-05-10T03:55:53;5.25;;;2.05;;
39104;SDS011;46464;51.154;13.812;2023-05-10T03:58:19;5.20;;;1.75;;
39104;SDS011;46464;51.154;13.812;2023-05-10T04:00:46;3.80;;;1.80;;
39104;SDS011;46464;51.154;13.812;2023-05-10T04:03:12;4.53;;;2.05;;
39104;SDS011;46464;51.154;13.812;2023-05-10T04:05:39;8.13;;;2.25;;
39104;SDS011;46464;51.154;13.812;2023-05-10T04:08:06;2.83;;;1.73;;
39104;SDS011;46464;51.154;13.812;2023-05-10T04:10:32;4.22;;;2.05;;
39104;SDS011;46464;51.154;13.812;2023-05-10T04:12:59;4.45;;;1.70;;
39104;SDS011;46464;51.154;13.812;2023-05-10T04:15:25;3.28;;;1.90;;
39104;SDS011;46464;51.154;13.812;2023-05-10T04:17:52;3.92;;;1.88;;
39104;SDS011;46464;51.154;13.812;2023-05-10T04:20:19;3.47;;;2.10;;
39104;SDS011;46464;51.154;13.812;2023-05-10T04:22:46;3.50;;;2.20;;
39104;SDS011;46464;51.154;13.812;2023-05-10T04:25:12;2.95;;;1.85;;
39104;SDS011;46464;51.154;13.812;2023-05-10T04:27:39;3.65;;;1.80;;
39104;SDS011;46464;51.154;13.812;2023-05-10T04:30:06;6.38;;;2.10;;
39104;SDS011;46464;51.154;13.812;2023-05-10T04:32:33;3.35;;;1.80;;
39104;SDS011;46464;51.154;13.812;2023-05-10T04:34:59;2.92;;;1.95;;
39104;SDS011;46464;51.154;13.812;2023-05-10T04:37:26;3.05;;;1.70;;
39104;SDS011;46464;51.154;13.812;2023-05-10T04:42:19;2.55;;;1.80;;
39104;SDS011;46464;51.154;13.812;2023-05-10T04:44:46;2.97;;;1.95;;
39104;SDS011;46464;51.154;13.812;2023-05-10T04:47:12;2.80;;;1.58;;
39104;SDS011;46464;51.154;13.812;2023-05-10T04:49:39;3.53;;;2.13;;
39104;SDS011;46464;51.154;13.812;2023-05-10T04:52:06;10.00;;;1.90;;
39104;SDS011;46464;51.154;13.812;2023-05-10T04:54:32;3.45;;;2.00;;
39104;SDS011;46464;51.154;13.812;2023-05-10T04:56:59;3.15;;;1.90;;
39104;SDS011;46464;51.154;13.812;2023-05-10T04:59:25;3.33;;;1.90;;
39104;SDS011;46464;51.154;13.812;2023-05-10T05:04:18;3.97;;;2.22;;
39104;SDS011;46464;51.154;13.812;2023-05-10T05:06:45;3.53;;;1.63;;
39104;SDS011;46464;51.154;13.812;2023-05-10T05:09:11;2.97;;;1.88;;
39104;SDS011;46464;51.154;13.812;2023-05-10T05:11:38;3.42;;;2.08;;
39104;SDS011;46464;51.154;13.812;2023-05-10T05:14:06;2.90;;;1.70;;
39104;SDS011;46464;51.154;13.812;2023-05-10T05:16:32;4.25;;;2.28;;
39104;SDS011;46464;51.154;13.812;2023-05-10T05:18:59;3.50;;;1.90;;
39104;SDS011;46464;51.154;13.812;2023-05-10T05:21:26;5.22;;;2.03;;
39104;SDS011;46464;51.154;13.812;2023-05-10T05:23:53;3.42;;;1.90;;
39104;SDS011;46464;51.154;13.812;2023-05-10T05:26:19;3.35;;;1.88;;
39104;SDS011;46464;51.154;13.812;2023-05-10T05:28:46;4.65;;;1.60;;
39104;SDS011;46464;51.154;13.812;2023-05-10T05:31:14;2.17;;;1.70;;
39104;SDS011;46464;51.154;13.812;2023-05-10T05:33:41;2.40;;;1.48;;
39104;SDS011;46464;51.154;13.812;2023-05-10T05:36:07;2.85;;;1.60;;
39104;SDS011;46464;51.154;13.812;2023-05-10T05:38:34;4.13;;;1.52;;
39104;SDS011;46464;51.154;13.812;2023-05-10T05:41:00;3.00;;;1.73;;
39104;SDS011;46464;51.154;13.812;2023-05-10T05:43:26;5.10;;;1.80;;
39104;SDS011;46464;51.154;13.812;2023-05-10T05:45:53;2.88;;;1.73;;
39104;SDS011;46464;51.154;13.812;2023-05-10T05:48:20;2.22;;;1.55;;
39104;SDS011;46464;51.154;13.812;2023-05-10T05:50:46;4.55;;;1.98;;
39104;SDS011;46464;51.154;13.812;2023-05-10T05:53:13;4.20;;;1.63;;
39104;SDS011;46464;51.154;13.812;2023-05-10T05:55:39;6.25;;;1.65;;
39104;SDS011;46464;51.154;13.812;2023-05-10T05:58:06;4.63;;;2.35;;
39104;SDS011;46464;51.154;13.812;2023-05-10T06:00:32;7.63;;;1.85;;
39104;SDS011;46464;51.154;13.812;2023-05-10T06:02:59;8.65;;;2.13;;
39104;SDS011;46464;51.154;13.812;2023-05-10T06:05:26;3.75;;;1.85;;
39104;SDS011;46464;51.154;13.812;2023-05-10T06:07:52;5.60;;;1.67;;
39104;SDS011;46464;51.154;13.812;2023-05-10T06:10:18;4.53;;;1.55;;
39104;SDS011;46464;51.154;13.812;2023-05-10T06:12:45;3.80;;;1.50;;
39104;SDS011;46464;51.154;13.812;2023-05-10T06:15:11;3.53;;;1.77;;
39104;SDS011;46464;51.154;13.812;2023-05-10T06:17:38;3.20;;;1.55;;
39104;SDS011;46464;51.154;13.812;2023-05-10T06:20:06;5.22;;;1.60;;
39104;SDS011;46464;51.154;13.812;2023-05-10T06:22:33;5.55;;;1.60;;
39104;SDS011;46464;51.154;13.812;2023-05-10T06:25:00;5.25;;;1.50;;
39104;SDS011;46464;51.154;13.812;2023-05-10T06:27:26;2.60;;;1.48;;
39104;SDS011;46464;51.154;13.812;2023-05-10T06:29:53;4.85;;;1.73;;
39104;SDS011;46464;51.154;13.812;2023-05-10T06:32:34;3.38;;;1.58;;
39104;SDS011;46464;51.154;13.812;2023-05-10T06:35:01;4.60;;;1.50;;
39104;SDS011;46464;51.154;13.812;2023-05-10T06:37:27;5.47;;;1.42;;
39104;SDS011;46464;51.154;13.812;2023-05-10T06:39:54;3.78;;;1.70;;
39104;SDS011;46464;51.154;13.812;2023-05-10T06:42:20;2.67;;;1.30;;
39104;SDS011;46464;51.154;13.812;2023-05-10T06:44:47;2.88;;;1.60;;
39104;SDS011;46464;51.154;13.812;2023-05-10T06:47:13;2.17;;;1.48;;
39104;SDS011;46464;51.154;13.812;2023-05-10T06:49:40;3.22;;;1.65;;
39104;SDS011;46464;51.154;13.812;2023-05-10T06:52:06;9.88;;;2.17;;
39104;SDS011;46464;51.154;13.812;2023-05-10T06:54:33;7.50;;;1.80;;
39104;SDS011;46464;51.154;13.812;2023-05-10T06:59:32;3.70;;;1.60;;
39104;SDS011;46464;51.154;13.812;2023-05-10T07:01:59;3.53;;;1.60;;
39104;SDS011;46464;51.154;13.812;2023-05-10T07:04:25;4.68;;;2.15;;
39104;SDS011;46464;51.154;13.812;2023-05-10T07:06:52;6.00;;;1.73;;
39104;SDS011;46464;51.154;13.812;2023-05-10T07:09:19;4.75;;;1.73;;
39104;SDS011;46464;51.154;13.812;2023-05-10T07:11:45;4.00;;;1.88;;
39104;SDS011;46464;51.154;13.812;2023-05-10T07:14:12;4.18;;;1.83;;
39104;SDS011;46464;51.154;13.812;2023-05-10T07:16:38;4.25;;;1.67;;
39104;SDS011;46464;51.154;13.812;2023-05-10T07:19:05;2.70;;;1.65;;
39104;SDS011;46464;51.154;13.812;2023-05-10T07:21:31;3.03;;;1.90;;
39104;SDS011;46464;51.154;13.812;2023-05-10T07:26:25;4.13;;;1.38;;
39104;SDS011;46464;51.154;13.812;2023-05-10T07:28:52;3.72;;;1.73;;
39104;SDS011;46464;51.154;13.812;2023-05-10T07:31:18;2.10;;;1.45;;
39104;SDS011;46464;51.154;13.812;2023-05-10T07:36:12;6.45;;;1.70;;
39104;SDS011;46464;51.154;13.812;2023-05-10T07:38:38;4.38;;;2.10;;
39104;SDS011;46464;51.154;13.812;2023-05-10T07:41:06;2.83;;;1.80;;
39104;SDS011;46464;51.154;13.812;2023-05-10T07:43:32;2.63;;;1.95;;
39104;SDS011;46464;51.154;13.812;2023-05-10T07:45:59;4.50;;;1.90;;
39104;SDS011;46464;51.154;13.812;2023-05-10T07:50:52;2.70;;;1.85;;
39104;SDS011;46464;51.154;13.812;2023-05-10T07:53:18;3.85;;;1.70;;
39104;SDS011;46464;51.154;13.812;2023-05-10T07:55:49;4.50;;;2.17;;
39104;SDS011;46464;51.154;13.812;2023-05-10T07:58:17;3.35;;;1.60;;
39104;SDS011;46464;51.154;13.812;2023-05-10T08:00:44;4.68;;;2.10;;
39104;SDS011;46464;51.154;13.812;2023-05-10T08:03:10;3.67;;;1.85;;
39104;SDS011;46464;51.154;13.812;2023-05-10T08:08:03;6.22;;;2.33;;
39104;SDS011;46464;51.154;13.812;2023-05-10T08:10:30;7.00;;;2.25;;
39104;SDS011;46464;51.154;13.812;2023-05-10T08:12:59;7.90;;;2.17;;
39104;SDS011;46464;51.154;13.812;2023-05-10T08:15:26;4.82;;;2.30;;
39104;SDS011;46464;51.154;13.812;2023-05-10T08:17:52;4.13;;;1.85;;
39104;SDS011;46464;51.154;13.812;2023-05-10T08:20:19;6.45;;;1.98;;
39104;SDS011;46464;51.154;13.812;2023-05-10T08:22:45;2.85;;;1.73;;
39104;SDS011;46464;51.154;13.812;2023-05-10T08:25:15;3.15;;;2.00;;
39104;SDS011;46464;51.154;13.812;2023-05-10T08:27:42;5.22;;;2.22;;
39104;SDS011;46464;51.154;13.812;2023-05-10T08:30:08;3.08;;;1.90;;
39104;SDS011;46464;51.154;13.812;2023-05-10T08:32:35;3.58;;;1.98;;
39104;SDS011;46464;51.154;13.812;2023-05-10T08:35:04;5.65;;;2.08;;
39104;SDS011;46464;51.154;13.812;2023-05-10T08:37:31;3.42;;;2.10;;
39104;SDS011;46464;51.154;13.812;2023-05-10T08:39:58;4.72;;;1.70;;
39104;SDS011;46464;51.154;13.812;2023-05-10T08:42:25;3.78;;;1.90;;
39104;SDS011;46464;51.154;13.812;2023-05-10T08:44:54;2.78;;;1.90;;
39104;SDS011;46464;51.154;13.812;2023-05-10T08:47:23;4.00;;;1.98;;
39104;SDS011;46464;51.154;13.812;2023-05-10T08:49:50;2.45;;;1.80;;
39104;SDS011;46464;51.154;13.812;2023-05-10T08:52:17;2.72;;;1.80;;
39104;SDS011;46464;51.154;13.812;2023-05-10T08:54:44;7.00;;;2.33;;
39104;SDS011;46464;51.154;13.812;2023-05-10T09:00:06;4.00;;;2.00;;
39104;SDS011;46464;51.154;13.812;2023-05-10T09:02:34;3.08;;;1.80;;
39104;SDS011;46464;51.154;13.812;2023-05-10T09:05:03;6.25;;;1.92;;
39104;SDS011;46464;51.154;13.812;2023-05-10T09:07:31;3.13;;;2.10;;
39104;SDS011;46464;51.154;13.812;2023-05-10T09:10:00;4.43;;;2.13;;
39104;SDS011;46464;51.154;13.812;2023-05-10T09:17:20;4.18;;;2.03;;
39104;SDS011;46464;51.154;13.812;2023-05-10T09:19:49;2.30;;;1.77;;
39104;SDS011;46464;51.154;13.812;2023-05-10T09:22:16;4.43;;;2.08;;
39104;SDS011;46464;51.154;13.812;2023-05-10T09:24:43;3.75;;;1.90;;
39104;SDS011;46464;51.154;13.812;2023-05-10T09:27:11;4.95;;;2.00;;
39104;SDS011;46464;51.154;13.812;2023-05-10T09:29:41;2.75;;;1.70;;
39104;SDS011;46464;51.154;13.812;2023-05-10T09:32:08;3.85;;;2.10;;
39104;SDS011;46464;51.154;13.812;2023-05-10T09:34:35;3.53;;;2.03;;
39104;SDS011;46464;51.154;13.812;2023-05-10T09:37:06;3.33;;;1.70;;
39104;SDS011;46464;51.154;13.812;2023-05-10T09:42:01;3.85;;;2.10;;
39104;SDS011;46464;51.154;13.812;2023-05-10T09:44:30;3.35;;;1.90;;
39104;SDS011;46464;51.154;13.812;2023-05-10T09:46:59;3.80;;;1.90;;
39104;SDS011;46464;51.154;13.812;2023-05-10T09:49:28;3.40;;;1.75;;
39104;SDS011;46464;51.154;13.812;2023-05-10T09:52:05;3.75;;;2.20;;
39104;SDS011;46464;51.154;13.812;2023-05-10T09:54:33;3.88;;;1.85;;
39104;SDS011;46464;51.154;13.812;2023-05-10T09:57:00;2.42;;;1.77;;
39104;SDS011;46464;51.154;13.812;2023-05-10T09:59:27;2.47;;;2.03;;
39104;SDS011;46464;51.154;13.812;2023-05-10T10:01:59;3.95;;;1.98;;
39104;SDS011;46464;51.154;13.812;2023-05-10T10:04:26;5.65;;;2.00;;
39104;SDS011;46464;51.154;13.812;2023-05-10T10:07:00;4.57;;;1.95;;
39104;SDS011;46464;51.154;13.812;2023-05-10T10:09:31;4.60;;;1.80;;
39104;SDS011;46464;51.154;13.812;2023-05-10T10:12:00;4.72;;;2.08;;
39104;SDS011;46464;51.154;13.812;2023-05-10T10:14:29;4.18;;;2.25;;
39104;SDS011;46464;51.154;13.812;2023-05-10T10:16:59;4.78;;;1.90;;
39104;SDS011;46464;51.154;13.812;2023-05-10T10:19:30;4.60;;;2.08;;
39104;SDS011;46464;51.154;13.812;2023-05-10T10:22:02;4.75;;;2.10;;
39104;SDS011;46464;51.154;13.812;2023-05-10T10:24:29;3.13;;;1.65;;
39104;SDS011;46464;51.154;13.812;2023-05-10T10:26:57;2.55;;;1.92;;
39104;SDS011;46464;51.154;13.812;2023-05-10T10:29:39;3.15;;;2.25;;
39104;SDS011;46464;51.154;13.812;2023-05-10T10:35:14;4.25;;;2.08;;
39104;SDS011;46464;51.154;13.812;2023-05-10T10:37:46;6.90;;;2.47;;
39104;SDS011;46464;51.154;13.812;2023-05-10T10:42:51;3.47;;;2.03;;
39104;SDS011;46464;51.154;13.812;2023-05-10T10:45:18;4.15;;;2.20;;
39104;SDS011;46464;51.154;13.812;2023-05-10T10:47:45;4.72;;;2.17;;
39104;SDS011;46464;51.154;13.812;2023-05-10T10:52:42;3.63;;;2.40;;
39104;SDS011;46464;51.154;13.812;2023-05-10T10:55:20;3.63;;;2.25;;
39104;SDS011;46464;51.154;13.812;2023-05-10T10:57:52;3.63;;;2.28;;
39104;SDS011;46464;51.154;13.812;2023-05-10T11:03:14;3.22;;;1.92;;
39104;SDS011;46464;51.154;13.812;2023-05-10T11:05:45;8.32;;;2.22;;
39104;SDS011;46464;51.154;13.812;2023-05-10T11:08:28;6.00;;;2.85;;
39104;SDS011;46464;51.154;13.812;2023-05-10T11:13:27;4.25;;;1.80;;
39104;SDS011;46464;51.154;13.812;2023-05-10T11:15:59;4.95;;;2.40;;
39104;SDS011;46464;51.154;13.812;2023-05-10T11:18:37;2.92;;;2.05;;
39104;SDS011;46464;51.154;13.812;2023-05-10T11:21:04;3.90;;;2.30;;
39104;SDS011;46464;51.154;13.812;2023-05-10T11:26:13;5.00;;;2.35;;
39104;SDS011;46464;51.154;13.812;2023-05-10T11:28:41;3.78;;;1.98;;
39104;SDS011;46464;51.154;13.812;2023-05-10T11:31:08;3.42;;;2.38;;
39104;SDS011;46464;51.154;13.812;2023-05-10T11:36:15;3.50;;;2.40;;
39104;SDS011;46464;51.154;13.812;2023-05-10T11:38:46;9.27;;;2.70;;
39104;SDS011;46464;51.154;13.812;2023-05-10T11:41:15;6.22;;;2.60;;
39104;SDS011;46464;51.154;13.812;2023-05-10T11:43:42;3.85;;;2.35;;
39104;SDS011;46464;51.154;13.812;2023-05-10T11:46:12;3.50;;;2.20;;
39104;SDS011;46464;51.154;13.812;2023-05-10T11:48:40;3.97;;;2.40;;
39104;SDS011;46464;51.154;13.812;2023-05-10T11:51:10;3.60;;;1.92;;
39104;SDS011;46464;51.154;13.812;2023-05-10T11:53:37;2.97;;;2.00;;
39104;SDS011;46464;51.154;13.812;2023-05-10T11:58:31;4.28;;;2.00;;
39104;SDS011;46464;51.154;13.812;2023-05-10T12:00:59;3.70;;;2.40;;
39104;SDS011;46464;51.154;13.812;2023-05-10T12:03:26;3.83;;;2.55;;
39104;SDS011;46464;51.154;13.812;2023-05-10T12:05:54;3.47;;;1.98;;
39104;SDS011;46464;51.154;13.812;2023-05-10T12:08:23;4.45;;;2.20;;
39104;SDS011;46464;51.154;13.812;2023-05-10T12:10:50;3.72;;;2.15;;
39104;SDS011;46464;51.154;13.812;2023-05-10T12:13:18;3.47;;;1.98;;
39104;SDS011;46464;51.154;13.812;2023-05-10T12:15:46;5.28;;;2.25;;
39104;SDS011;46464;51.154;13.812;2023-05-10T12:20:41;7.40;;;2.25;;
39104;SDS011;46464;51.154;13.812;2023-05-10T12:23:08;2.83;;;1.90;;
39104;SDS011;46464;51.154;13.812;2023-05-10T12:25:36;4.15;;;2.15;;
39104;SDS011;46464;51.154;13.812;2023-05-10T12:28:04;2.25;;;1.73;;
39104;SDS011;46464;51.154;13.812;2023-05-10T12:30:35;4.18;;;1.90;;
39104;SDS011;46464;51.154;13.812;2023-05-10T12:33:07;4.50;;;2.13;;
39104;SDS011;46464;51.154;13.812;2023-05-10T12:35:48;6.38;;;2.35;;
39104;SDS011;46464;51.154;13.812;2023-05-10T12:38:29;3.92;;;1.90;;
39104;SDS011;46464;51.154;13.812;2023-05-10T12:40:57;4.43;;;1.98;;
39104;SDS011;46464;51.154;13.812;2023-05-10T12:43:25;4.57;;;2.10;;
39104;SDS011;46464;51.154;13.812;2023-05-10T12:45:52;3.13;;;1.85;;
39104;SDS011;46464;51.154;13.812;2023-05-10T12:48:19;3.22;;;2.13;;
39104;SDS011;46464;51.154;13.812;2023-05-10T12:50:46;4.97;;;2.30;;
39104;SDS011;46464;51.154;13.812;2023-05-10T12:53:16;3.30;;;2.10;;
39104;SDS011;46464;51.154;13.812;2023-05-10T12:55:43;3.80;;;2.20;;
39104;SDS011;46464;51.154;13.812;2023-05-10T12:58:10;3.60;;;1.90;;
39104;SDS011;46464;51.154;13.812;2023-05-10T13:00:46;3.22;;;1.90;;
39104;SDS011;46464;51.154;13.812;2023-05-10T13:05:39;4.60;;;2.30;;
39104;SDS011;46464;51.154;13.812;2023-05-10T13:10:32;3.22;;;2.20;;
39104;SDS011;46464;51.154;13.812;2023-05-10T13:12:59;5.50;;;2.75;;
39104;SDS011;46464;51.154;13.812;2023-05-10T13:17:52;3.78;;;2.58;;
39104;SDS011;46464;51.154;13.812;2023-05-10T13:20:20;3.58;;;2.45;;
39104;SDS011;46464;51.154;13.812;2023-05-10T13:22:46;4.22;;;2.20;;
39104;SDS011;46464;51.154;13.812;2023-05-10T13:25:15;3.85;;;2.15;;
39104;SDS011;46464;51.154;13.812;2023-05-10T13:27:42;4.78;;;2.30;;
39104;SDS011;46464;51.154;13.812;2023-05-10T13:30:08;3.63;;;2.17;;
39104;SDS011;46464;51.154;13.812;2023-05-10T13:32:35;4.00;;;2.25;;
39104;SDS011;46464;51.154;13.812;2023-05-10T13:35:02;3.03;;;2.28;;
39104;SDS011;46464;51.154;13.812;2023-05-10T13:37:30;4.63;;;2.17;;
39104;SDS011;46464;51.154;13.812;2023-05-10T13:39:57;5.78;;;2.47;;
39104;SDS011;46464;51.154;13.812;2023-05-10T13:42:24;4.22;;;2.20;;
39104;SDS011;46464;51.154;13.812;2023-05-10T13:44:50;4.40;;;2.65;;
39104;SDS011;46464;51.154;13.812;2023-05-10T13:47:17;4.07;;;2.05;;
39104;SDS011;46464;51.154;13.812;2023-05-10T13:49:44;4.10;;;2.20;;
39104;SDS011;46464;51.154;13.812;2023-05-10T13:52:11;3.80;;;2.10;;
39104;SDS011;46464;51.154;13.812;2023-05-10T13:54:38;4.57;;;2.00;;
39104;SDS011;46464;51.154;13.812;2023-05-10T13:57:04;5.20;;;2.40;;
39104;SDS011;46464;51.154;13.812;2023-05-10T13:59:31;3.65;;;2.33;;
39104;SDS011;46464;51.154;13.812;2023-05-10T14:01:58;4.47;;;2.08;;
39104;SDS011;46464;51.154;13.812;2023-05-10T14:04:25;4.22;;;2.47;;
39104;SDS011;46464;51.154;13.812;2023-05-10T14:06:51;5.88;;;2.92;;
39104;SDS011;46464;51.154;13.812;2023-05-10T14:09:19;6.03;;;2.60;;
39104;SDS011;46464;51.154;13.812;2023-05-10T14:11:45;5.47;;;2.50;;
39104;SDS011;46464;51.154;13.812;2023-05-10T14:14:12;6.15;;;2.30;;
39104;SDS011;46464;51.154;13.812;2023-05-10T14:16:43;3.90;;;2.38;;
39104;SDS011;46464;51.154;13.812;2023-05-10T14:19:10;3.80;;;2.47;;
39104;SDS011;46464;51.154;13.812;2023-05-10T14:21:37;4.70;;;2.70;;
39104;SDS011;46464;51.154;13.812;2023-05-10T14:24:04;4.13;;;2.83;;
39104;SDS011;46464;51.154;13.812;2023-05-10T14:26:31;6.00;;;2.78;;
39104;SDS011;46464;51.154;13.812;2023-05-10T14:31:25;5.30;;;3.05;;
39104;SDS011;46464;51.154;13.812;2023-05-10T14:33:52;4.97;;;2.38;;
39104;SDS011;46464;51.154;13.812;2023-05-10T14:36:18;8.32;;;2.63;;
39104;SDS011;46464;51.154;13.812;2023-05-10T14:38:45;6.45;;;2.75;;
39104;SDS011;46464;51.154;13.812;2023-05-10T14:41:11;4.00;;;2.72;;
39104;SDS011;46464;51.154;13.812;2023-05-10T14:43:40;3.63;;;3.10;;
39104;SDS011;46464;51.154;13.812;2023-05-10T14:48:33;6.13;;;3.10;;
39104;SDS011;46464;51.154;13.812;2023-05-10T14:51:00;6.30;;;2.67;;
39104;SDS011;46464;51.154;13.812;2023-05-10T14:53:26;3.88;;;2.40;;
39104;SDS011;46464;51.154;13.812;2023-05-10T14:55:53;3.33;;;2.35;;
39104;SDS011;46464;51.154;13.812;2023-05-10T14:58:19;3.95;;;2.90;;
39104;SDS011;46464;51.154;13.812;2023-05-10T15:00:46;3.35;;;2.60;;
39104;SDS011;46464;51.154;13.812;2023-05-10T15:03:13;2.88;;;2.55;;
39104;SDS011;46464;51.154;13.812;2023-05-10T15:05:40;4.22;;;2.70;;
39104;SDS011;46464;51.154;13.812;2023-05-10T15:08:06;3.53;;;2.67;;
39104;SDS011;46464;51.154;13.812;2023-05-10T15:13:00;4.78;;;2.83;;
39104;SDS011;46464;51.154;13.812;2023-05-10T15:22:45;5.47;;;2.47;;
39104;SDS011;46464;51.154;13.812;2023-05-10T15:25:12;3.65;;;2.30;;
39104;SDS011;46464;51.154;13.812;2023-05-10T15:27:39;7.25;;;2.53;;
39104;SDS011;46464;51.154;13.812;2023-05-10T15:30:06;4.15;;;2.30;;
39104;SDS011;46464;51.154;13.812;2023-05-10T15:32:33;3.15;;;2.38;;
39104;SDS011;46464;51.154;13.812;2023-05-10T15:35:00;5.60;;;2.38;;
39104;SDS011;46464;51.154;13.812;2023-05-10T15:37:27;4.18;;;1.95;;
39104;SDS011;46464;51.154;13.812;2023-05-10T15:39:53;4.22;;;2.72;;
39104;SDS011;46464;51.154;13.812;2023-05-10T15:42:22;3.58;;;2.70;;
39104;SDS011;46464;51.154;13.812;2023-05-10T15:44:49;6.65;;;2.80;;
39104;SDS011;46464;51.154;13.812;2023-05-10T15:47:16;6.05;;;2.20;;
39104;SDS011;46464;51.154;13.812;2023-05-10T15:49:43;3.72;;;2.75;;
39104;SDS011;46464;51.154;13.812;2023-05-10T15:52:09;4.32;;;2.65;;
39104;SDS011;46464;51.154;13.812;2023-05-10T15:54:36;6.53;;;3.92;;
39104;SDS011;46464;51.154;13.812;2023-05-10T15:57:02;6.38;;;3.20;;
39104;SDS011;46464;51.154;13.812;2023-05-10T15:59:29;8.35;;;3.50;;
39104;SDS011;46464;51.154;13.812;2023-05-10T16:01:55;6.80;;;3.75;;
39104;SDS011;46464;51.154;13.812;2023-05-10T16:09:15;5.07;;;2.95;;
39104;SDS011;46464;51.154;13.812;2023-05-10T16:11:42;4.55;;;2.50;;
39104;SDS011;46464;51.154;13.812;2023-05-10T16:14:09;3.35;;;2.50;;
39104;SDS011;46464;51.154;13.812;2023-05-10T16:16:37;2.92;;;2.20;;
39104;SDS011;46464;51.154;13.812;2023-05-10T16:19:03;7.60;;;2.42;;
39104;SDS011;46464;51.154;13.812;2023-05-10T16:21:30;5.13;;;2.50;;
39104;SDS011;46464;51.154;13.812;2023-05-10T16:23:58;2.92;;;1.95;;
39104;SDS011;46464;51.154;13.812;2023-05-10T16:26:25;3.88;;;2.10;;